createdAt,value
2022-09-15T00:01:45.798Z,86.08
2022-09-15T00:04:13.601Z,86.42
2022-09-15T00:06:41.359Z,86.51
2022-09-15T00:09:09.459Z,86.49
2022-09-15T00:11:38.056Z,86.06
2022-09-15T00:14:09.135Z,86.02
2022-09-15T00:16:37.490Z,86.55
2022-09-15T00:19:07.473Z,86.29
2022-09-15T00:24:28.762Z,86.49
2022-09-15T00:26:56.816Z,86.67
2022-09-15T00:29:24.626Z,86.43
2022-09-15T00:34:46.117Z,86.21
2022-09-15T00:37:13.963Z,86.28
2022-09-15T00:39:41.742Z,86.24
2022-09-15T00:42:15.064Z,86.07
2022-09-15T00:44:50.878Z,86.31
2022-09-15T00:47:21.405Z,86.38
2022-09-15T00:49:58.796Z,86.30
2022-09-15T00:52:32.530Z,86.18
2022-09-15T00:55:04.088Z,86.32
2022-09-15T00:57:36.690Z,86.21
2022-09-15T01:00:13.292Z,86.29
2022-09-15T01:02:43.369Z,86.36
2022-09-15T01:05:16.627Z,86.10
2022-09-15T01:07:47.958Z,86.64
2022-09-15T01:10:20.912Z,86.18
2022-09-15T01:12:48.932Z,86.71
2022-09-15T01:15:17.320Z,86.61
2022-09-15T01:18:11.553Z,86.16
2022-09-15T01:21:01.027Z,86.38
2022-09-15T01:23:46.858Z,86.71
2022-09-15T01:26:58.140Z,86.53
2022-09-15T01:30:10.566Z,86.25
2022-09-15T01:33:07.152Z,86.81
2022-09-15T01:35:44.848Z,86.79
2022-09-15T01:38:21.386Z,86.77
2022-09-15T01:40:53.964Z,86.63
2022-09-15T01:43:23.376Z,86.39
2022-09-15T01:45:53.480Z,86.36
2022-09-15T01:48:25.725Z,86.46
2022-09-15T01:50:56.953Z,86.51
2022-09-15T01:53:25.639Z,86.39
2022-09-15T01:55:57.244Z,86.73
2022-09-15T01:58:25.137Z,86.50
2022-09-15T02:00:58.211Z,86.60
2022-09-15T02:03:34.996Z,86.60
2022-09-15T02:06:07.626Z,86.72
2022-09-15T02:08:42.781Z,86.85
2022-09-15T02:11:17.402Z,86.59
2022-09-15T02:13:57.294Z,86.94
2022-09-15T02:16:28.629Z,86.53
2022-09-15T02:19:20.243Z,86.81
2022-09-15T02:21:58.544Z,86.59
2022-09-15T02:24:32.873Z,86.95
2022-09-15T02:27:04.298Z,86.91
2022-09-15T02:29:37.261Z,86.34
2022-09-15T02:32:07.630Z,86.66
2022-09-15T02:34:41.367Z,86.56
2022-09-15T02:37:11.504Z,86.85
2022-09-15T02:39:44.569Z,86.88
2022-09-15T02:45:06.072Z,87.04
2022-09-15T02:47:33.911Z,86.58
2022-09-15T02:50:04.067Z,86.62
2022-09-15T02:52:31.927Z,86.76
2022-09-15T02:55:01.127Z,86.89
2022-09-15T02:57:28.909Z,87.12
2022-09-15T03:00:14.941Z,86.59
2022-09-15T03:02:45.431Z,87.03
2022-09-15T03:05:16.444Z,86.63
2022-09-15T03:07:44.562Z,86.84
2022-09-15T03:10:13.774Z,87.07
2022-09-15T03:12:43.084Z,87.11
2022-09-15T03:15:12.873Z,87.07
2022-09-15T03:17:42.847Z,87.02
2022-09-15T03:20:12.648Z,86.93
2022-09-15T03:22:42.052Z,86.67
2022-09-15T03:25:10.579Z,86.99
2022-09-15T03:27:38.719Z,86.73
2022-09-15T03:30:08.545Z,86.72
2022-09-15T03:32:36.515Z,86.99
2022-09-15T03:35:05.221Z,87.17
2022-09-15T03:37:33.794Z,87.29
2022-09-15T03:40:04.654Z,86.70
2022-09-15T03:42:38.406Z,86.84
2022-09-15T03:45:07.887Z,86.91
2022-09-15T03:47:35.670Z,87.25
2022-09-15T03:50:03.542Z,86.92
2022-09-15T03:52:32.439Z,87.17
2022-09-15T03:55:00.532Z,86.78
2022-09-15T03:57:29.649Z,86.74
2022-09-15T03:59:57.585Z,87.10
2022-09-15T04:02:25.508Z,87.02
2022-09-15T04:04:53.489Z,87.11
2022-09-15T04:07:21.276Z,87.03
2022-09-15T04:09:49.214Z,86.80
2022-09-15T04:12:17.242Z,87.31
2022-09-15T04:14:46.942Z,86.94
2022-09-15T04:17:15.550Z,86.97
2022-09-15T04:19:43.392Z,87.22
2022-09-15T04:22:15.523Z,87.19
2022-09-15T04:24:45.651Z,87.28
2022-09-15T04:27:13.536Z,87.42
2022-09-15T04:29:41.826Z,87.34
2022-09-15T04:32:11.245Z,87.20
2022-09-15T04:37:31.009Z,87.06
2022-09-15T04:39:59.078Z,87.33
2022-09-15T04:42:26.980Z,87.35
2022-09-15T04:44:54.914Z,87.33
2022-09-15T04:47:24.055Z,87.28
2022-09-15T04:49:52.056Z,87.58
2022-09-15T04:52:19.890Z,87.34
2022-09-15T04:54:47.896Z,87.03
2022-09-15T04:57:15.902Z,87.25
2022-09-15T04:59:43.680Z,87.17
2022-09-15T05:02:11.614Z,87.41
2022-09-15T05:04:40.840Z,87.50
2022-09-15T05:07:08.634Z,87.43
2022-09-15T05:09:36.486Z,87.53
2022-09-15T05:12:04.263Z,87.35
2022-09-15T05:14:32.287Z,87.44
2022-09-15T05:17:00.258Z,87.24
2022-09-15T05:19:28.013Z,87.50
2022-09-15T05:21:57.213Z,87.71
2022-09-15T05:24:24.962Z,87.32
2022-09-15T05:27:17.625Z,87.10
2022-09-15T05:29:45.512Z,87.33
2022-09-15T05:32:13.318Z,87.69
2022-09-15T05:34:41.327Z,87.56
2022-09-15T05:37:10.866Z,87.34
2022-09-15T05:39:41.008Z,87.30
2022-09-15T05:42:10.766Z,87.34
2022-09-15T05:44:38.641Z,87.32
2022-09-15T05:47:06.974Z,87.70
2022-09-15T05:49:35.058Z,87.64
2022-09-15T05:52:03.722Z,87.37
2022-09-15T05:54:32.857Z,87.50
2022-09-15T05:57:00.655Z,87.63
2022-09-15T05:59:28.623Z,87.49
2022-09-15T06:01:56.419Z,87.47
2022-09-15T06:04:24.380Z,87.56
2022-09-15T06:06:52.307Z,87.42
2022-09-15T06:09:20.076Z,87.73
2022-09-15T06:11:49.228Z,87.90
2022-09-15T06:14:17.191Z,87.54
2022-09-15T06:16:45.064Z,87.74
2022-09-15T06:19:12.809Z,87.59
2022-09-15T06:21:43.842Z,87.48
2022-09-15T06:24:13.210Z,87.72
2022-09-15T06:26:40.995Z,87.83
2022-09-15T06:29:13.745Z,87.76
2022-09-15T06:31:41.643Z,87.73
2022-09-15T06:34:13.625Z,87.42
2022-09-15T06:36:41.482Z,87.50
2022-09-15T06:39:09.782Z,87.66
2022-09-15T06:42:01.288Z,87.62
2022-09-15T06:44:30.863Z,87.90
2022-09-15T06:46:58.756Z,87.80
2022-09-15T06:49:26.616Z,87.74
2022-09-15T06:51:54.382Z,87.57
2022-09-15T06:54:22.170Z,87.71
2022-09-15T06:56:50.472Z,87.71
2022-09-15T06:59:18.261Z,87.79
2022-09-15T07:01:47.494Z,87.76
2022-09-15T07:04:15.270Z,87.87
2022-09-15T07:06:43.035Z,87.58
2022-09-15T07:09:12.192Z,87.75
2022-09-15T07:11:39.905Z,87.79
2022-09-15T07:14:07.875Z,87.66
2022-09-15T07:16:35.737Z,87.81
2022-09-15T07:19:05.921Z,87.75
2022-09-15T07:21:35.630Z,87.97
2022-09-15T07:24:06.970Z,88.03
2022-09-15T07:26:35.734Z,87.72
2022-09-15T07:29:06.152Z,87.80
2022-09-15T07:34:58.240Z,87.97
2022-09-15T07:37:26.462Z,87.89
2022-09-15T07:39:54.268Z,88.02
2022-09-15T07:42:22.085Z,87.87
2022-09-15T07:44:50.246Z,87.76
2022-09-15T07:47:18.279Z,87.76
2022-09-15T07:49:46.054Z,87.92
2022-09-15T07:52:15.623Z,87.79
2022-09-15T07:54:43.347Z,87.82
2022-09-15T07:57:11.287Z,87.92
2022-09-15T07:59:41.188Z,87.74
2022-09-15T08:02:17.254Z,87.95
2022-09-15T08:04:45.377Z,87.76
2022-09-15T08:07:13.637Z,87.85
2022-09-15T08:09:42.779Z,87.97
2022-09-15T08:12:10.556Z,87.78
2022-09-15T08:14:38.392Z,87.94
2022-09-15T08:17:11.271Z,87.95
2022-09-15T08:19:39.453Z,88.00
2022-09-15T08:22:07.323Z,88.01
2022-09-15T08:24:37.281Z,87.99
2022-09-15T08:27:06.568Z,87.96
2022-09-15T08:29:34.625Z,87.97
2022-09-15T08:32:03.832Z,87.81
2022-09-15T08:34:31.757Z,88.06
2022-09-15T08:36:59.533Z,88.01
2022-09-15T08:39:27.525Z,87.88
2022-09-15T08:41:56.360Z,88.02
2022-09-15T08:44:36.544Z,87.96
2022-09-15T08:47:11.186Z,87.98
2022-09-15T08:49:51.889Z,88.03
2022-09-15T08:52:24.322Z,88.03
2022-09-15T08:54:58.091Z,87.95
2022-09-15T08:57:27.002Z,88.06
2022-09-15T08:59:59.080Z,87.84
2022-09-15T09:02:48.189Z,88.04
2022-09-15T09:05:32.670Z,88.07
2022-09-15T09:08:14.811Z,87.86
2022-09-15T09:10:50.358Z,87.90
2022-09-15T09:13:33.316Z,87.92
2022-09-15T09:16:20.681Z,87.87
2022-09-15T09:19:16.009Z,88.02
2022-09-15T09:21:48.028Z,88.03
2022-09-15T09:24:18.237Z,87.78
2022-09-15T09:26:51.165Z,87.95
2022-09-15T09:29:20.993Z,87.90
2022-09-15T09:31:52.101Z,87.86
2022-09-15T09:34:28.949Z,87.93
2022-09-15T09:37:00.437Z,87.84
2022-09-15T09:39:29.380Z,87.85
2022-09-15T09:41:57.398Z,87.88
2022-09-15T09:44:31.897Z,87.84
2022-09-15T09:47:02.679Z,87.86
2022-09-15T09:49:35.432Z,87.90
2022-09-15T09:52:04.624Z,87.79
2022-09-15T09:54:35.509Z,87.77
2022-09-15T09:57:24.225Z,87.75
2022-09-15T09:59:52.563Z,87.79
2022-09-15T10:02:24.682Z,87.89
2022-09-15T10:04:54.587Z,87.71
2022-09-15T10:07:25.830Z,87.72
2022-09-15T10:10:27.100Z,87.55
2022-09-15T10:13:21.004Z,87.71
2022-09-15T10:42:49.156Z,87.45
2022-09-15T11:24:11.723Z,87.02
2022-09-15T11:35:11.375Z,86.79
2022-09-15T11:41:21.193Z,86.73
2022-09-15T11:47:44.985Z,86.69
2022-09-15T11:57:00.537Z,86.52
2022-09-15T12:06:18.290Z,86.22
2022-09-15T12:15:53.531Z,86.17
2022-09-15T12:21:54.904Z,86.15
2022-09-15T12:31:38.400Z,85.83
2022-09-15T12:34:23.160Z,85.82
2022-09-15T12:36:53.378Z,85.64
2022-09-15T12:39:37.549Z,85.73
2022-09-15T12:42:12.103Z,85.50
2022-09-15T12:44:45.675Z,85.45
2022-09-15T12:47:24.296Z,85.48
2022-09-15T12:49:54.959Z,85.38
2022-09-15T12:52:25.233Z,85.35
2022-09-15T12:54:57.193Z,85.47
2022-09-15T12:57:29.371Z,85.13
2022-09-15T13:00:45.503Z,85.17
2022-09-15T13:03:50.749Z,85.10
2022-09-15T13:06:22.787Z,84.89
2022-09-15T13:09:13.043Z,85.06
2022-09-15T13:14:22.308Z,84.89
2022-09-15T13:16:55.644Z,84.72
2022-09-15T13:19:26.594Z,84.49
2022-09-15T13:22:02.943Z,84.65
2022-09-15T13:24:43.133Z,84.59
2022-09-15T13:27:12.423Z,84.63
2022-09-15T13:29:49.115Z,84.41
2022-09-15T13:32:33.869Z,84.32
2022-09-15T13:35:22.865Z,84.22
2022-09-15T13:38:31.849Z,84.08
2022-09-15T13:41:42.823Z,84.05
2022-09-15T13:44:55.722Z,84.00
2022-09-15T13:47:49.560Z,83.96
2022-09-15T13:50:24.815Z,83.81
2022-09-15T13:53:21.600Z,83.85
2022-09-15T13:55:51.834Z,83.72
2022-09-15T14:01:12.461Z,83.54
2022-09-15T14:03:44.740Z,83.65
2022-09-15T14:06:20.238Z,83.45
2022-09-15T14:08:53.733Z,83.13
2022-09-15T14:11:34.696Z,83.41
2022-09-15T14:14:02.998Z,83.21
2022-09-15T14:16:34.835Z,83.23
2022-09-15T14:19:05.815Z,83.10
2022-09-15T14:21:35.012Z,83.01
2022-09-15T14:24:06.356Z,82.85
2022-09-15T14:26:37.565Z,82.90
2022-09-15T14:29:07.942Z,83.19
2022-09-15T14:31:38.506Z,82.49
2022-09-15T14:34:14.595Z,82.64
2022-09-15T14:36:42.665Z,82.60
2022-09-15T14:39:22.903Z,82.60
2022-09-15T14:41:52.542Z,82.46
2022-09-15T14:47:13.646Z,82.35
2022-09-15T14:49:41.460Z,82.26
2022-09-15T14:52:25.171Z,82.28
2022-09-15T14:54:59.413Z,82.24
2022-09-15T14:57:32.945Z,82.03
2022-09-15T15:00:10.655Z,81.92
2022-09-15T15:02:51.741Z,81.81
2022-09-15T15:05:25.498Z,81.81
2022-09-15T15:07:55.282Z,81.89
2022-09-15T15:10:25.793Z,81.84
2022-09-15T15:12:58.205Z,81.76
2022-09-15T15:15:26.286Z,81.48
2022-09-15T15:17:55.369Z,81.54
2022-09-15T15:20:25.484Z,81.27
2022-09-15T15:23:15.387Z,81.35
2022-09-15T15:25:43.726Z,81.30
2022-09-15T15:28:31.861Z,81.27
2022-09-15T15:31:15.479Z,81.25
2022-09-15T15:33:48.552Z,81.17
2022-09-15T15:36:21.006Z,81.06
2022-09-15T15:38:52.272Z,81.06
2022-09-15T15:41:23.381Z,81.08
2022-09-15T15:44:03.288Z,80.85
2022-09-15T15:46:51.598Z,80.74
2022-09-15T15:49:20.820Z,80.61
2022-09-15T15:51:48.902Z,80.70
2022-09-15T15:54:16.638Z,80.54
2022-09-15T15:56:44.448Z,80.65
2022-09-15T15:59:15.227Z,80.56
2022-09-15T16:01:43.677Z,80.49
2022-09-15T16:04:13.168Z,80.24
2022-09-15T16:06:42.361Z,80.30
2022-09-15T16:09:10.891Z,80.25
2022-09-15T16:11:38.655Z,80.43
2022-09-15T16:14:06.450Z,80.24
2022-09-15T16:16:35.701Z,80.11
2022-09-15T16:19:03.909Z,80.11
2022-09-15T16:21:37.271Z,80.12
2022-09-15T16:24:05.892Z,80.07
2022-09-15T16:26:35.466Z,79.94
2022-09-15T16:29:03.262Z,79.82
2022-09-15T16:31:31.667Z,79.85
2022-09-15T16:34:00.935Z,79.58
2022-09-15T16:36:29.024Z,79.78
2022-09-15T16:39:22.263Z,79.76
2022-09-15T16:41:52.420Z,79.51
2022-09-15T16:44:21.879Z,79.66
2022-09-15T16:46:49.730Z,79.44
2022-09-15T16:49:20.899Z,79.49
2022-09-15T16:51:48.967Z,79.42
2022-09-15T16:54:18.138Z,79.52
2022-09-15T16:56:46.470Z,79.40
2022-09-15T16:59:14.513Z,79.35
2022-09-15T17:01:42.420Z,79.20
2022-09-15T17:04:13.726Z,79.20
2022-09-15T17:06:43.085Z,79.25
2022-09-15T17:09:10.872Z,79.11
2022-09-15T17:11:38.896Z,78.98
2022-09-15T17:14:07.145Z,79.07
2022-09-15T17:16:35.025Z,78.76
2022-09-15T17:19:02.795Z,78.90
2022-09-15T17:21:30.613Z,78.83
2022-09-15T17:23:59.768Z,78.66
2022-09-15T17:26:31.160Z,78.79
2022-09-15T17:28:59.562Z,78.76
2022-09-15T17:31:27.940Z,78.70
2022-09-15T17:33:56.079Z,78.64
2022-09-15T17:36:23.968Z,78.58
2022-09-15T17:38:51.808Z,78.54
2022-09-15T17:41:22.762Z,78.63
2022-09-15T17:43:50.795Z,78.40
2022-09-15T17:46:18.815Z,78.40
2022-09-15T17:48:46.656Z,78.39
2022-09-15T17:51:18.023Z,78.38
2022-09-15T17:53:47.621Z,78.16
2022-09-15T17:56:15.426Z,78.24
2022-09-15T17:58:44.667Z,78.30
2022-09-15T18:01:14.655Z,78.24
2022-09-15T18:03:44.845Z,78.14
2022-09-15T18:06:13.485Z,78.14
2022-09-15T18:08:41.467Z,78.02
2022-09-15T18:11:09.387Z,77.93
2022-09-15T18:13:37.939Z,77.92
2022-09-15T18:16:12.276Z,78.00
2022-09-15T18:18:40.959Z,78.02
2022-09-15T18:21:11.709Z,77.88
2022-09-15T18:23:44.548Z,77.82
2022-09-15T18:26:12.473Z,77.85
2022-09-15T18:28:40.209Z,77.83
2022-09-15T18:31:13.812Z,78.06
2022-09-15T18:33:41.710Z,77.67
2022-09-15T18:36:10.731Z,77.64
2022-09-15T18:38:38.523Z,77.87
2022-09-15T18:41:11.681Z,77.62
2022-09-15T18:44:04.545Z,77.61
2022-09-15T18:46:33.820Z,77.48
2022-09-15T18:49:02.809Z,77.49
2022-09-15T18:51:51.136Z,77.37
2022-09-15T18:54:19.874Z,77.35
2022-09-15T18:56:47.864Z,77.45
2022-09-15T18:59:17.649Z,77.54
2022-09-15T19:01:47.139Z,77.38
2022-09-15T19:04:15.129Z,77.42
2022-09-15T19:06:42.935Z,77.27
2022-09-15T19:09:10.878Z,77.38
2022-09-15T19:11:38.870Z,77.38
2022-09-15T19:14:07.680Z,77.15
2022-09-15T19:16:56.431Z,77.34
2022-09-15T19:19:25.691Z,77.31
2022-09-15T19:21:53.499Z,77.16
2022-09-15T19:24:21.485Z,77.21
2022-09-15T19:26:49.455Z,77.14
2022-09-15T19:29:17.847Z,77.20
2022-09-15T19:31:50.532Z,77.26
2022-09-15T19:34:18.445Z,77.09
2022-09-15T19:36:47.838Z,77.06
2022-09-15T19:39:15.729Z,77.14
2022-09-15T19:41:43.555Z,77.12
2022-09-15T19:44:11.468Z,77.11
2022-09-15T19:46:39.321Z,77.13
2022-09-15T19:49:07.910Z,77.12
2022-09-15T19:51:35.726Z,77.15
2022-09-15T19:54:05.533Z,76.92
2022-09-15T19:56:33.498Z,77.06
2022-09-15T19:59:01.859Z,76.84
2022-09-15T20:01:32.578Z,76.90
2022-09-15T20:04:01.892Z,76.76
2022-09-15T20:06:32.677Z,76.98
2022-09-15T20:09:00.960Z,77.11
2022-09-15T20:11:31.214Z,77.00
2022-09-15T20:13:59.178Z,76.95
2022-09-15T20:16:27.167Z,76.87
2022-09-15T20:18:55.919Z,76.89
2022-09-15T20:21:45.922Z,76.74
2022-09-15T20:24:14.038Z,76.76
2022-09-15T20:26:43.510Z,76.70
2022-09-15T20:29:12.099Z,76.96
2022-09-15T20:31:40.063Z,76.69
2022-09-15T20:34:08.343Z,76.85
2022-09-15T20:36:38.756Z,77.08
2022-09-15T20:39:09.311Z,76.96
2022-09-15T20:41:37.949Z,76.91
2022-09-15T20:44:09.281Z,76.65
2022-09-15T20:46:42.256Z,77.03
2022-09-15T20:49:11.742Z,76.63
2022-09-15T20:51:40.402Z,76.73
2022-09-15T20:54:08.355Z,76.72
2022-09-15T20:56:37.323Z,76.56
2022-09-15T20:59:10.261Z,77.02
2022-09-15T21:01:39.957Z,77.09
2022-09-15T21:04:10.061Z,76.92
2022-09-15T21:06:38.609Z,76.71
2022-09-15T21:09:06.836Z,77.03
2022-09-15T21:11:34.940Z,76.80
2022-09-15T21:14:03.386Z,76.83
2022-09-15T21:16:33.932Z,76.70
2022-09-15T21:19:01.959Z,76.89
2022-09-15T21:21:31.228Z,76.91
2022-09-15T21:24:03.556Z,76.99
2022-09-15T21:26:33.331Z,77.03
2022-09-15T21:29:01.811Z,76.67
2022-09-15T21:31:33.046Z,76.60
2022-09-15T21:34:06.306Z,76.75
2022-09-15T21:36:34.440Z,76.79
2022-09-15T21:39:02.901Z,77.09
2022-09-15T21:41:31.715Z,77.04
2022-09-15T21:44:01.076Z,77.05
2022-09-15T21:46:31.029Z,76.88
2022-09-15T21:49:01.563Z,76.62
2022-09-15T21:51:30.933Z,76.75
2022-09-15T21:54:00.377Z,76.81
2022-09-15T21:56:30.796Z,77.04
2022-09-15T21:58:59.017Z,77.12
2022-09-15T22:01:33.349Z,76.91
2022-09-15T22:06:40.339Z,76.84
2022-09-15T22:09:10.302Z,77.06
2022-09-15T22:11:38.540Z,77.03
2022-09-15T22:14:08.317Z,77.23
2022-09-15T22:16:38.012Z,76.61
2022-09-15T22:19:07.006Z,77.36
2022-09-15T22:21:39.620Z,77.01
2022-09-15T22:24:08.323Z,76.91
2022-09-15T22:26:38.785Z,76.93
2022-09-15T22:29:07.557Z,77.27
2022-09-15T22:31:36.727Z,76.94
2022-09-15T22:34:05.079Z,77.24
2022-09-15T22:36:34.113Z,77.19
2022-09-15T22:39:05.739Z,77.25
2022-09-15T22:41:36.452Z,77.24
2022-09-15T22:44:05.504Z,76.98
2022-09-15T22:46:34.125Z,77.19
2022-09-15T22:49:02.432Z,77.33
2022-09-15T22:51:30.573Z,77.03
2022-09-15T22:53:59.451Z,77.38
2022-09-15T22:56:29.163Z,77.21
2022-09-15T22:58:57.795Z,77.17
2022-09-15T23:01:28.149Z,77.08
2022-09-15T23:03:57.728Z,76.92
2022-09-15T23:06:27.516Z,77.55
2022-09-15T23:08:58.218Z,76.98
2022-09-15T23:11:29.965Z,77.36
2022-09-15T23:13:58.830Z,77.35
2022-09-15T23:16:28.556Z,76.98
2022-09-15T23:18:56.499Z,77.29
2022-09-15T23:21:24.511Z,77.29
2022-09-15T23:23:55.169Z,77.55
2022-09-15T23:26:25.245Z,77.28
2022-09-15T23:28:55.098Z,76.71
2022-09-15T23:31:24.235Z,77.07
2022-09-15T23:33:52.291Z,77.32
2022-09-15T23:36:20.587Z,77.16
2022-09-15T23:38:49.690Z,77.45
2022-09-15T23:41:19.056Z,77.37
2022-09-15T23:43:47.506Z,77.23
2022-09-15T23:46:17.996Z,77.30
2022-09-15T23:48:49.337Z,77.51
2022-09-15T23:51:17.443Z,77.23
2022-09-15T23:53:45.583Z,77.37
2022-09-15T23:56:14.098Z,77.71
2022-09-15T23:58:42.319Z,77.21
